createdAt,value
2022-12-22T00:01:15.529Z,93921.09
2022-12-22T00:02:37.778Z,93915.38
2022-12-22T00:03:53.398Z,93903.34
2022-12-22T00:05:08.874Z,93906.47
2022-12-22T00:06:28.219Z,93905.13
2022-12-22T00:07:43.343Z,93906.69
2022-12-22T00:09:05.073Z,93900.19
2022-12-22T00:10:20.616Z,93908.53
2022-12-22T00:11:35.811Z,93908.22
2022-12-22T00:12:51.302Z,93907.19
2022-12-22T00:14:06.730Z,93918.47
2022-12-22T00:15:23.557Z,93913.50
2022-12-22T00:16:39.097Z,93907.66
2022-12-22T00:17:54.295Z,93911.09
2022-12-22T00:19:09.794Z,93919.78
2022-12-22T00:20:39.119Z,93923.44
2022-12-22T00:21:54.594Z,93901.75
2022-12-22T00:23:09.659Z,93911.94
2022-12-22T00:24:25.047Z,93917.19
2022-12-22T00:25:39.907Z,93840.63
2022-12-22T00:26:55.342Z,93919.28
2022-12-22T00:28:10.887Z,93925.81
2022-12-22T00:29:33.073Z,93916.91
2022-12-22T00:30:48.572Z,93911.16
2022-12-22T00:32:04.294Z,93895.53
2022-12-22T00:33:21.466Z,93878.25
2022-12-22T00:34:41.309Z,93919.53
2022-12-22T00:35:56.804Z,93917.44
2022-12-22T00:37:11.603Z,93860.50
2022-12-22T00:38:33.011Z,93918.50
2022-12-22T00:39:47.960Z,93918.25
2022-12-22T00:41:02.909Z,93921.13
2022-12-22T00:42:18.174Z,93914.84
2022-12-22T00:43:33.563Z,93903.84
2022-12-22T00:44:48.463Z,93914.06
2022-12-22T00:46:03.725Z,93835.94
2022-12-22T00:47:19.009Z,93902.03
2022-12-22T00:48:41.135Z,93906.47
2022-12-22T00:49:59.643Z,93896.81
2022-12-22T00:51:14.817Z,93907.00
2022-12-22T00:52:30.683Z,93902.28
2022-12-22T00:53:45.582Z,93900.72
2022-12-22T00:55:01.689Z,93893.41
2022-12-22T00:56:16.814Z,93883.75
2022-12-22T00:57:38.320Z,93895.25
2022-12-22T00:58:54.515Z,93896.31
2022-12-22T01:00:11.760Z,93898.09
2022-12-22T01:01:29.505Z,93909.63
2022-12-22T01:02:44.657Z,93906.47
2022-12-22T01:04:00.004Z,93897.06
2022-12-22T01:05:15.343Z,93901.00
2022-12-22T01:06:30.741Z,93902.28
2022-12-22T01:07:46.111Z,93899.97
2022-12-22T01:09:01.845Z,93905.44
2022-12-22T01:10:17.394Z,93894.75
2022-12-22T01:11:32.650Z,93901.78
2022-12-22T01:12:56.050Z,93900.72
2022-12-22T01:14:11.108Z,93896.03
2022-12-22T01:15:32.166Z,93888.19
2022-12-22T01:16:47.572Z,93885.56
2022-12-22T01:18:02.997Z,93885.56
2022-12-22T01:19:18.012Z,93871.19
2022-12-22T01:20:33.152Z,93885.31
2022-12-22T01:21:48.569Z,93883.25
2022-12-22T01:23:03.573Z,93886.63
2022-12-22T01:24:18.699Z,93865.19
2022-12-22T01:25:36.591Z,93877.22
2022-12-22T01:26:51.895Z,93874.59
2022-12-22T01:28:07.296Z,93873.44
2022-12-22T01:29:22.294Z,93871.56
2022-12-22T01:30:37.199Z,93827.00
2022-12-22T01:31:52.681Z,93862.50
2022-12-22T01:33:07.749Z,93811.31
2022-12-22T01:34:22.910Z,93869.78
2022-12-22T01:35:43.515Z,93870.50
2022-12-22T01:36:58.467Z,93867.03
2022-12-22T01:38:13.797Z,93871.31
2022-12-22T01:39:28.543Z,93842.97
2022-12-22T01:40:43.962Z,93881.41
2022-12-22T01:41:59.276Z,93862.84
2022-12-22T01:43:14.193Z,93874.63
2022-12-22T01:44:34.825Z,93874.84
2022-12-22T01:45:54.344Z,93868.06
2022-12-22T01:47:09.317Z,93872.25
2022-12-22T01:48:29.351Z,93866.50
2022-12-22T01:50:01.284Z,93864.16
2022-12-22T01:51:20.333Z,93868.34
2022-12-22T01:52:37.795Z,93866.78
2022-12-22T01:53:53.646Z,93869.91
2022-12-22T01:55:09.359Z,93858.41
2022-12-22T01:56:25.396Z,93867.28
2022-12-22T01:57:40.895Z,93864.69
2022-12-22T01:59:00.858Z,93835.94
2022-12-22T02:00:16.164Z,93855.03
2022-12-22T02:01:31.708Z,93868.34
2022-12-22T02:02:49.968Z,93875.66
2022-12-22T02:04:05.045Z,93869.38
2022-12-22T02:05:23.087Z,93724.97
2022-12-22T02:06:54.619Z,93821.56
2022-12-22T02:08:41.821Z,93867.53
2022-12-22T02:10:27.528Z,93868.31
2022-12-22T02:12:11.198Z,93868.09
2022-12-22T02:13:48.214Z,93873.03
2022-12-22T02:15:20.305Z,93873.31
2022-12-22T02:16:52.151Z,93856.31
2022-12-22T02:18:46.971Z,93869.66
2022-12-22T02:20:26.978Z,93866.50
2022-12-22T02:21:44.313Z,93873.03
2022-12-22T02:23:11.462Z,93869.91
2022-12-22T02:24:35.042Z,93872.00
2022-12-22T02:26:00.238Z,93873.81
2022-12-22T02:27:19.605Z,93867.84
2022-12-22T02:28:35.148Z,93864.44
2022-12-22T02:29:55.668Z,93861.81
2022-12-22T02:31:11.645Z,93819.22
2022-12-22T02:32:26.947Z,93851.59
2022-12-22T02:33:43.407Z,93861.25
2022-12-22T02:34:58.491Z,93856.03
2022-12-22T02:36:38.306Z,93854.63
2022-12-22T02:38:24.375Z,93858.28
2022-12-22T02:39:54.927Z,93857.81
2022-12-22T02:41:32.171Z,93866.63
2022-12-22T02:42:50.430Z,93866.06
2022-12-22T02:44:44.322Z,93864.72
2022-12-22T02:46:22.335Z,93862.84
2022-12-22T02:48:06.118Z,93863.09
2022-12-22T02:49:40.166Z,93855.25
2022-12-22T02:51:03.736Z,93861.25
2022-12-22T02:52:34.746Z,93858.47
2022-12-22T02:53:50.733Z,93856.03
2022-12-22T02:55:05.821Z,93811.91
2022-12-22T02:56:29.627Z,93850.03
2022-12-22T02:57:45.177Z,93851.88
2022-12-22T02:59:00.109Z,93841.41
2022-12-22T03:00:15.265Z,93852.66
2022-12-22T03:01:30.676Z,93852.16
2022-12-22T03:02:45.797Z,93851.09
2022-12-22T03:04:01.376Z,93859.19
2022-12-22T03:05:16.718Z,93844.84
2022-12-22T03:06:32.169Z,93838.03
2022-12-22T03:07:47.092Z,93851.09
2022-12-22T03:09:01.981Z,93856.31
2022-12-22T03:10:17.462Z,93853.97
2022-12-22T03:11:32.382Z,93857.91
2022-12-22T03:12:47.520Z,93819.75
2022-12-22T03:14:02.650Z,93849.28
2022-12-22T03:15:17.467Z,93861.53
2022-12-22T03:16:32.450Z,93831.75
2022-12-22T03:17:47.861Z,93851.09
2022-12-22T03:19:03.095Z,93855.53
2022-12-22T03:20:18.273Z,93853.19
2022-12-22T03:21:34.541Z,93850.56
2022-12-22T03:22:49.451Z,93848.50
2022-12-22T03:24:04.866Z,93853.97
2022-12-22T03:25:19.844Z,93857.38
2022-12-22T03:26:16.440Z,93781.63
2022-12-22T03:27:13.197Z,93850.03
2022-12-22T03:28:09.951Z,93851.59
2022-12-22T03:29:06.990Z,93858.94
2022-12-22T03:30:04.263Z,93802.50
2022-12-22T03:31:05.077Z,93856.31
2022-12-22T03:32:01.999Z,93856.81
2022-12-22T03:32:58.922Z,93862.56
2022-12-22T03:33:55.674Z,93859.44
2022-12-22T03:34:52.239Z,93858.16
2022-12-22T03:35:48.879Z,93824.94
2022-12-22T03:36:45.488Z,93855.25
2022-12-22T03:37:42.079Z,93857.34
2022-12-22T03:38:38.691Z,93843.78
2022-12-22T03:39:35.912Z,93855.25
2022-12-22T03:40:32.912Z,93858.13
2022-12-22T03:41:48.038Z,93860.47
2022-12-22T03:43:03.640Z,93855.25
2022-12-22T03:44:18.829Z,93852.94
2022-12-22T03:45:34.212Z,93852.94
2022-12-22T03:46:30.875Z,93849.00
2022-12-22T03:47:27.537Z,93792.84
2022-12-22T03:48:24.144Z,93861.00
2022-12-22T03:49:22.483Z,93850.03
2022-12-22T03:50:19.071Z,93865.72
2022-12-22T03:51:15.654Z,93832.25
2022-12-22T03:52:12.279Z,93862.28
2022-12-22T03:53:08.843Z,93858.66
2022-12-22T03:54:05.497Z,93831.22
2022-12-22T03:55:02.407Z,93844.00
2022-12-22T03:56:04.099Z,93860.47
2022-12-22T03:57:04.103Z,93860.19
2022-12-22T03:58:00.746Z,93861.00
2022-12-22T03:58:57.466Z,93851.59
2022-12-22T03:59:53.999Z,93857.84
2022-12-22T04:00:50.692Z,93857.53
2022-12-22T04:01:50.593Z,93821.78
2022-12-22T04:02:47.337Z,93850.00
2022-12-22T04:03:43.987Z,93819.94
2022-12-22T04:04:40.674Z,93851.06
2022-12-22T04:05:37.389Z,93846.91
2022-12-22T04:06:33.997Z,93843.22
2022-12-22T04:07:30.708Z,93844.56
2022-12-22T04:08:27.373Z,93842.19
2022-12-22T04:09:24.933Z,93847.16
2022-12-22T04:10:39.870Z,93835.69
2022-12-22T04:11:55.114Z,93844.31
2022-12-22T04:12:55.443Z,93845.09
2022-12-22T04:13:51.996Z,93853.72
2022-12-22T04:14:48.554Z,93848.25
2022-12-22T04:15:45.100Z,93854.50
2022-12-22T04:16:41.810Z,93845.88
2022-12-22T04:17:38.643Z,93848.22
2022-12-22T04:18:35.224Z,93862.59
2022-12-22T04:19:32.052Z,93850.84
2022-12-22T04:20:28.970Z,93848.22
2022-12-22T04:21:26.104Z,93853.47
2022-12-22T04:22:22.680Z,93804.34
2022-12-22T04:23:19.313Z,93849.28
2022-12-22T04:24:16.202Z,93853.19
2022-12-22T04:25:13.491Z,93858.88
2022-12-22T04:26:10.380Z,93822.31
2022-12-22T04:27:06.945Z,93858.09
2022-12-22T04:28:03.629Z,93855.53
2022-12-22T04:29:00.325Z,93853.44
2022-12-22T04:29:57.014Z,93854.47
2022-12-22T04:30:53.574Z,93854.75
2022-12-22T04:31:50.426Z,93853.66
2022-12-22T04:32:47.250Z,93806.94
2022-12-22T04:33:43.907Z,93843.75
2022-12-22T04:34:40.516Z,93875.63
2022-12-22T04:35:37.171Z,93854.47
2022-12-22T04:36:33.783Z,93854.22
2022-12-22T04:37:30.333Z,93848.50
2022-12-22T04:38:26.961Z,93842.47
2022-12-22T04:39:23.580Z,93845.34
2022-12-22T04:40:20.157Z,93843.28
2022-12-22T04:41:16.701Z,93844.31
2022-12-22T04:42:13.397Z,93773.81
2022-12-22T04:43:10.033Z,93851.63
2022-12-22T04:44:07.010Z,93854.50
2022-12-22T04:45:05.447Z,93847.16
2022-12-22T04:46:02.154Z,93820.81
2022-12-22T04:46:58.815Z,93839.59
2022-12-22T04:47:55.447Z,93760.44
2022-12-22T04:48:56.192Z,93862.56
2022-12-22T04:49:56.118Z,93856.53
2022-12-22T04:50:55.172Z,93850.50
2022-12-22T04:51:51.830Z,93852.59
2022-12-22T04:52:48.409Z,93851.53
2022-12-22T04:53:44.983Z,93842.88
2022-12-22T04:54:41.543Z,93846.03
2022-12-22T04:55:38.104Z,93849.94
2022-12-22T04:56:34.691Z,93849.41
2022-12-22T04:57:34.332Z,93852.03
2022-12-22T04:58:35.982Z,93848.91
2022-12-22T04:59:32.594Z,93770.53
2022-12-22T05:00:29.173Z,93845.81
2022-12-22T05:01:26.105Z,93850.50
2022-12-22T05:02:22.872Z,93845.28
2022-12-22T05:03:20.069Z,93845.03
2022-12-22T05:04:23.367Z,93848.97
2022-12-22T05:05:20.342Z,93851.09
2022-12-22T05:06:16.963Z,93848.50
2022-12-22T05:07:13.593Z,93740.91
2022-12-22T05:08:10.617Z,93842.47
2022-12-22T05:09:07.233Z,93841.16
2022-12-22T05:10:06.910Z,93837.78
2022-12-22T05:11:03.876Z,93840.13
2022-12-22T05:12:00.467Z,93841.69
2022-12-22T05:12:57.845Z,93844.53
2022-12-22T05:13:54.430Z,93836.16
2022-12-22T05:14:51.195Z,93846.13
2022-12-22T05:15:47.787Z,93840.13
2022-12-22T05:16:44.443Z,93838.53
2022-12-22T05:17:41.066Z,93837.97
2022-12-22T05:18:38.761Z,93784.78
2022-12-22T05:19:35.343Z,93841.69
2022-12-22T05:20:32.118Z,93842.75
2022-12-22T05:21:28.730Z,93758.38
2022-12-22T05:22:25.341Z,93851.06
2022-12-22T05:23:21.984Z,93782.63
2022-12-22T05:24:18.595Z,93845.28
2022-12-22T05:25:19.924Z,93857.31
2022-12-22T05:26:19.190Z,93842.69
2022-12-22T05:27:15.827Z,93777.16
2022-12-22T05:28:12.447Z,93856.56
2022-12-22T05:29:09.037Z,93821.31
2022-12-22T05:30:06.341Z,93843.28
2022-12-22T05:31:20.313Z,93849.53
2022-12-22T05:32:17.088Z,93844.28
2022-12-22T05:33:13.807Z,93836.66
2022-12-22T05:34:10.419Z,93835.38
2022-12-22T05:35:08.105Z,93854.69
2022-12-22T05:36:04.934Z,93859.34
2022-12-22T05:37:01.542Z,93852.06
2022-12-22T05:37:58.435Z,93863.06
2022-12-22T05:38:54.999Z,93864.34
2022-12-22T05:39:51.527Z,93853.41
2022-12-22T05:40:48.538Z,93861.00
2022-12-22T05:41:45.332Z,93853.13
2022-12-22T05:42:42.046Z,93821.53
2022-12-22T05:43:39.124Z,93868.78
2022-12-22T05:44:35.711Z,93866.69
2022-12-22T05:45:32.322Z,93866.44
2022-12-22T05:46:28.935Z,93866.44
2022-12-22T05:47:25.520Z,93877.13
2022-12-22T05:48:28.317Z,93866.69
2022-12-22T05:49:27.619Z,93867.72
2022-12-22T05:50:26.049Z,93866.13
2022-12-22T05:51:22.655Z,93863.50
2022-12-22T05:52:19.248Z,93864.53
2022-12-22T05:53:15.874Z,93872.09
2022-12-22T05:54:12.794Z,93862.97
2022-12-22T05:55:10.395Z,93840.47
2022-12-22T05:56:07.875Z,93868.69
2022-12-22T05:57:04.522Z,93849.34
2022-12-22T05:58:02.311Z,93865.31
2022-12-22T05:58:58.882Z,93865.31
2022-12-22T05:59:55.654Z,93877.84
2022-12-22T06:00:52.275Z,93866.66
2022-12-22T06:01:48.861Z,93833.22
2022-12-22T06:02:45.740Z,93866.16
2022-12-22T06:03:42.491Z,93866.47
2022-12-22T06:04:39.223Z,93860.72
2022-12-22T06:05:35.812Z,93848.97
2022-12-22T06:06:32.432Z,93863.56
2022-12-22T06:07:29.034Z,93858.34
2022-12-22T06:08:26.482Z,93858.31
2022-12-22T06:09:23.196Z,93860.94
2022-12-22T06:10:19.828Z,93819.38
2022-12-22T06:11:18.375Z,93806.09
2022-12-22T06:12:15.054Z,93856.28
2022-12-22T06:13:11.697Z,93857.88
2022-12-22T06:14:08.458Z,93859.44
2022-12-22T06:15:05.962Z,93820.75
2022-12-22T06:16:02.649Z,93858.41
2022-12-22T06:16:59.274Z,93859.44
2022-12-22T06:17:55.905Z,93861.00
2022-12-22T06:18:52.464Z,93851.34
2022-12-22T06:19:49.061Z,93867.25
2022-12-22T06:20:47.026Z,93859.44
2022-12-22T06:21:43.614Z,93864.13
2022-12-22T06:22:40.437Z,93863.88
2022-12-22T06:23:36.993Z,93872.50
2022-12-22T06:24:33.633Z,93868.34
2022-12-22T06:25:30.202Z,93865.22
2022-12-22T06:26:26.731Z,93866.22
2022-12-22T06:27:23.466Z,93858.63
2022-12-22T06:28:20.083Z,93857.09
2022-12-22T06:29:16.822Z,93859.41
2022-12-22T06:30:15.492Z,93831.75
2022-12-22T06:31:12.319Z,93854.22
2022-12-22T06:32:08.987Z,93852.09
2022-12-22T06:33:05.543Z,93852.59
2022-12-22T06:34:02.159Z,93854.13
2022-12-22T06:34:58.813Z,93863.56
2022-12-22T06:35:59.040Z,93854.69
2022-12-22T06:36:56.145Z,93857.03
2022-12-22T06:37:52.702Z,93856.50
2022-12-22T06:38:49.975Z,93853.34
2022-12-22T06:39:47.319Z,93853.63
2022-12-22T06:40:43.972Z,93840.25
2022-12-22T06:41:59.603Z,93857.22
2022-12-22T06:43:11.333Z,93855.66
2022-12-22T06:44:07.845Z,93851.50
2022-12-22T06:45:04.853Z,93863.47
2022-12-22T06:46:01.567Z,93862.97
2022-12-22T06:46:58.249Z,93814.94
2022-12-22T06:47:54.985Z,93866.88
2022-12-22T06:48:52.241Z,93868.19
2022-12-22T06:49:49.711Z,93871.34
2022-12-22T06:50:46.499Z,93869.75
2022-12-22T06:51:43.139Z,93856.44
2022-12-22T06:52:39.888Z,93880.47
2022-12-22T06:53:36.450Z,93876.81
2022-12-22T06:54:33.089Z,93883.34
2022-12-22T06:55:29.799Z,93877.84
2022-12-22T06:56:26.400Z,93875.75
2022-12-22T06:57:23.015Z,93846.00
2022-12-22T06:58:19.569Z,93836.03
2022-12-22T06:59:16.189Z,93882.47
2022-12-22T07:00:13.207Z,93880.91
2022-12-22T07:01:09.799Z,93871.78
2022-12-22T07:02:07.034Z,93884.50
2022-12-22T07:03:03.934Z,93886.34
2022-12-22T07:04:00.934Z,93873.22
2022-12-22T07:04:57.745Z,93883.66
2022-12-22T07:05:54.311Z,93881.06
2022-12-22T07:06:51.013Z,93881.03
2022-12-22T07:07:47.683Z,93880.97
2022-12-22T07:08:45.345Z,93877.59
2022-12-22T07:09:41.893Z,93880.50
2022-12-22T07:10:56.807Z,93876.78
2022-12-22T07:11:53.404Z,93883.59
2022-12-22T07:12:50.085Z,93874.16
2022-12-22T07:13:47.893Z,93884.03
2022-12-22T07:14:44.461Z,93868.19
2022-12-22T07:15:41.026Z,93877.09
2022-12-22T07:16:37.682Z,93847.44
2022-12-22T07:17:34.340Z,93876.34
2022-12-22T07:18:33.294Z,93843.50
2022-12-22T07:19:29.941Z,93887.03
2022-12-22T07:20:26.609Z,93879.94
2022-12-22T07:21:23.263Z,93876.59
2022-12-22T07:22:25.642Z,93886.25
2022-12-22T07:23:26.749Z,93862.03
2022-12-22T07:24:26.036Z,93870.66
2022-12-22T07:25:22.705Z,93861.81
2022-12-22T07:26:19.366Z,93840.16
2022-12-22T07:27:16.311Z,93857.59
2022-12-22T07:28:16.659Z,93854.31
2022-12-22T07:29:17.175Z,93861.16
2022-12-22T07:30:14.135Z,93862.34
2022-12-22T07:31:12.028Z,93865.50
2022-12-22T07:32:08.778Z,93866.03
2022-12-22T07:33:05.482Z,93872.06
2022-12-22T07:34:02.113Z,93875.19
2022-12-22T07:35:04.741Z,93871.22
2022-12-22T07:36:12.514Z,93872.78
2022-12-22T07:37:09.064Z,93876.50
2022-12-22T07:38:05.659Z,93876.03
2022-12-22T07:39:02.661Z,93880.19
2022-12-22T07:39:59.393Z,93872.31
2022-12-22T07:41:04.504Z,93870.66
2022-12-22T07:42:19.967Z,93874.63
2022-12-22T07:43:16.567Z,93876.38
2022-12-22T07:44:13.222Z,93870.84
2022-12-22T07:45:10.791Z,93872.88
2022-12-22T07:46:07.615Z,93870.16
2022-12-22T07:47:04.437Z,93882.00
2022-12-22T07:48:02.379Z,93871.50
2022-12-22T07:49:18.248Z,93878.06
2022-12-22T07:50:29.884Z,93875.56
2022-12-22T07:51:26.694Z,93878.34
2022-12-22T07:52:23.388Z,93862.66
2022-12-22T07:53:20.074Z,93877.25
2022-12-22T07:54:17.259Z,93875.34
2022-12-22T07:55:14.310Z,93875.38
2022-12-22T07:56:10.964Z,93882.28
2022-12-22T07:57:07.604Z,93878.38
2022-12-22T07:58:04.188Z,93879.06
2022-12-22T07:59:01.249Z,93886.09
2022-12-22T07:59:57.868Z,93880.88
2022-12-22T08:01:01.520Z,93876.81
2022-12-22T08:01:58.305Z,93882.22
2022-12-22T08:02:56.637Z,93878.47
2022-12-22T08:03:53.291Z,93878.97
2022-12-22T08:04:49.968Z,93876.31
2022-12-22T08:05:46.665Z,93826.28
2022-12-22T08:06:43.224Z,93877.44
2022-12-22T08:07:39.843Z,93878.78
2022-12-22T08:08:36.561Z,93877.09
2022-12-22T08:09:33.242Z,93869.13
2022-12-22T08:10:29.870Z,93872.47
2022-12-22T08:11:26.742Z,93869.72
2022-12-22T08:12:23.373Z,93871.06
2022-12-22T08:13:20.583Z,93870.41
2022-12-22T08:14:17.264Z,93872.69
2022-12-22T08:15:13.912Z,93879.38
2022-12-22T08:16:12.665Z,93880.22
2022-12-22T08:17:09.283Z,93874.25
2022-12-22T08:18:05.948Z,93877.16
2022-12-22T08:19:04.922Z,93876.88
2022-12-22T08:20:01.753Z,93874.72
2022-12-22T08:20:58.420Z,93868.22
2022-12-22T08:21:55.008Z,93872.88
2022-12-22T08:22:51.683Z,93802.38
2022-12-22T08:23:48.248Z,93879.44
2022-12-22T08:24:44.905Z,93877.03
2022-12-22T08:25:41.572Z,93879.91
2022-12-22T08:26:44.159Z,93881.44
2022-12-22T08:27:50.905Z,93883.09
2022-12-22T08:28:55.028Z,93889.09
2022-12-22T08:29:55.606Z,93879.50
2022-12-22T08:30:52.517Z,93880.84
2022-12-22T08:31:49.491Z,93837.59
2022-12-22T08:32:48.234Z,93875.13
2022-12-22T08:33:45.284Z,93876.72
2022-12-22T08:34:42.588Z,93880.63
2022-12-22T08:35:39.369Z,93881.75
2022-12-22T08:36:41.946Z,93878.13
2022-12-22T08:37:42.950Z,93871.16
2022-12-22T08:38:42.401Z,93877.13
2022-12-22T08:39:41.832Z,93878.03
2022-12-22T08:40:38.924Z,93847.78
2022-12-22T08:41:52.194Z,93834.94
2022-12-22T08:42:51.622Z,93876.34
2022-12-22T08:43:48.248Z,93867.16
2022-12-22T08:44:46.069Z,93869.25
2022-12-22T08:45:42.974Z,93874.00
2022-12-22T08:46:39.660Z,93873.25
2022-12-22T08:47:36.310Z,93863.91
2022-12-22T08:48:33.143Z,93869.88
2022-12-22T08:49:29.720Z,93867.53
2022-12-22T08:50:26.467Z,93866.00
2022-12-22T08:51:23.381Z,93856.81
2022-12-22T08:52:19.991Z,93853.44
2022-12-22T08:53:45.227Z,93859.81
2022-12-22T08:54:33.793Z,93859.00
2022-12-22T08:55:30.568Z,93851.63
2022-12-22T08:56:27.170Z,93851.50
2022-12-22T08:57:23.755Z,93852.97
2022-12-22T08:58:21.359Z,93841.97
2022-12-22T08:59:18.191Z,93852.00
2022-12-22T09:00:15.397Z,93824.75
2022-12-22T09:01:23.647Z,93848.34
2022-12-22T09:02:20.345Z,93845.13
2022-12-22T09:03:17.014Z,93833.84
2022-12-22T09:04:15.487Z,93835.19
2022-12-22T09:05:12.129Z,93850.13
2022-12-22T09:06:08.822Z,93838.81
2022-12-22T09:07:05.759Z,93842.63
2022-12-22T09:08:02.740Z,93839.31
2022-12-22T09:09:03.256Z,93838.75
2022-12-22T09:09:59.901Z,93820.59
2022-12-22T09:10:56.650Z,93823.22
2022-12-22T09:11:53.310Z,93836.28
2022-12-22T09:12:51.440Z,93839.81
2022-12-22T09:13:51.302Z,93834.44
2022-12-22T09:14:47.860Z,93820.09
2022-12-22T09:15:44.402Z,93836.38
2022-12-22T09:16:41.329Z,93787.16
2022-12-22T09:17:38.018Z,93831.44
2022-12-22T09:18:34.860Z,93832.31
2022-12-22T09:19:31.506Z,93846.34
2022-12-22T09:20:28.093Z,93821.97
2022-12-22T09:21:25.376Z,93837.38
2022-12-22T09:22:28.209Z,93794.47
2022-12-22T09:23:25.956Z,93823.81
2022-12-22T09:24:22.538Z,93831.44
2022-12-22T09:25:19.068Z,93822.28
2022-12-22T09:26:18.573Z,93828.22
2022-12-22T09:27:15.126Z,93831.63
2022-12-22T09:28:12.267Z,93828.50
2022-12-22T09:29:08.998Z,93827.81
2022-12-22T09:30:06.327Z,93792.53
2022-12-22T09:31:03.557Z,93822.38
2022-12-22T09:32:00.289Z,93821.09
2022-12-22T09:32:56.900Z,93823.13
2022-12-22T09:33:54.073Z,93823.00
2022-12-22T09:34:50.617Z,93820.00
2022-12-22T09:35:47.327Z,93824.25
2022-12-22T09:36:44.199Z,93804.97
2022-12-22T09:37:40.942Z,93814.66
2022-12-22T09:38:39.094Z,93821.88
2022-12-22T09:39:35.754Z,93822.31
2022-12-22T09:40:32.842Z,93798.59
2022-12-22T09:41:37.216Z,93824.69
2022-12-22T09:42:35.630Z,93829.84
2022-12-22T09:43:32.245Z,93815.16
2022-12-22T09:44:33.653Z,93820.28
2022-12-22T09:45:31.243Z,93767.97
2022-12-22T09:46:31.619Z,93818.28
2022-12-22T09:47:37.826Z,93822.13
2022-12-22T09:48:37.212Z,93816.84
2022-12-22T09:49:33.908Z,93813.66
2022-12-22T09:50:33.108Z,93769.66
2022-12-22T09:51:31.123Z,93814.34
2022-12-22T09:52:33.725Z,93811.53
2022-12-22T09:53:31.161Z,93809.69
2022-12-22T09:54:29.164Z,93812.28
2022-12-22T09:55:25.871Z,93810.13
2022-12-22T09:56:25.305Z,93804.97
2022-12-22T09:57:26.639Z,93784.81
2022-12-22T09:58:30.584Z,93805.06
2022-12-22T09:59:28.732Z,93794.69
2022-12-22T10:00:27.138Z,93791.44
2022-12-22T10:01:58.225Z,93803.59
2022-12-22T10:03:14.196Z,93793.19
2022-12-22T10:04:43.052Z,93798.31
2022-12-22T10:05:54.070Z,93740.91
2022-12-22T10:07:26.114Z,93773.16
2022-12-22T10:08:30.039Z,93793.78
2022-12-22T10:09:49.562Z,93789.22
2022-12-22T10:10:46.224Z,93782.78
2022-12-22T10:11:57.347Z,93792.31
2022-12-22T10:13:05.422Z,93785.50
2022-12-22T10:14:02.004Z,93783.16
2022-12-22T10:14:58.647Z,93780.00
2022-12-22T10:15:56.069Z,93778.34
2022-12-22T10:17:31.236Z,93776.19
2022-12-22T10:18:29.913Z,93768.28
2022-12-22T10:19:26.518Z,93769.28
2022-12-22T10:20:28.301Z,93770.91
2022-12-22T10:21:26.311Z,93771.41
2022-12-22T10:22:32.173Z,93765.53
2022-12-22T10:23:30.662Z,93752.72
2022-12-22T10:24:29.356Z,93766.34
2022-12-22T10:26:08.851Z,93768.81
2022-12-22T10:26:57.525Z,93760.47
2022-12-22T10:27:59.858Z,93762.81
2022-12-22T10:29:06.011Z,93761.34
2022-12-22T10:30:38.745Z,93736.94
2022-12-22T10:31:39.582Z,93759.63
2022-12-22T10:32:36.337Z,93757.72
2022-12-22T10:33:34.764Z,93756.34
2022-12-22T10:34:31.532Z,93717.47
2022-12-22T10:35:42.436Z,93759.63
2022-12-22T10:36:39.761Z,93757.44
2022-12-22T10:37:39.943Z,93753.06
2022-12-22T10:38:52.032Z,93746.28
2022-12-22T10:39:48.646Z,93745.94
2022-12-22T10:40:47.952Z,93743.53
2022-12-22T10:41:48.783Z,93739.81
2022-12-22T10:42:53.807Z,93755.94
2022-12-22T10:43:53.698Z,93741.69
2022-12-22T10:44:50.765Z,93741.84
2022-12-22T10:45:49.204Z,93734.16
2022-12-22T10:46:45.723Z,93739.94
2022-12-22T10:47:48.694Z,93737.03
2022-12-22T10:48:45.766Z,93735.63
2022-12-22T10:49:45.656Z,93734.44
2022-12-22T10:50:48.510Z,93736.75
2022-12-22T10:52:08.261Z,93737.34
2022-12-22T10:53:06.286Z,93732.84
2022-12-22T10:54:03.087Z,93719.63
2022-12-22T10:55:18.502Z,93729.13
2022-12-22T10:56:30.861Z,93732.72
2022-12-22T10:57:30.443Z,93735.13
2022-12-22T10:58:28.560Z,93739.69
2022-12-22T10:59:25.336Z,93702.00
2022-12-22T11:00:30.989Z,93728.00
2022-12-22T11:01:33.098Z,93731.16
2022-12-22T11:02:38.378Z,93731.28
2022-12-22T11:03:35.371Z,93712.97
2022-12-22T11:04:32.090Z,93726.06
2022-12-22T11:05:29.696Z,93685.28
2022-12-22T11:06:26.416Z,93722.75
2022-12-22T11:07:24.405Z,93720.59
2022-12-22T11:08:21.275Z,93719.06
2022-12-22T11:09:33.161Z,93689.66
2022-12-22T11:10:36.960Z,93681.41
2022-12-22T11:11:43.589Z,93705.53
2022-12-22T11:13:04.976Z,93718.28
2022-12-22T11:14:04.611Z,93722.59
2022-12-22T11:15:11.967Z,93713.75
2022-12-22T11:16:31.408Z,93711.25
2022-12-22T11:17:39.378Z,93718.22
2022-12-22T11:18:51.286Z,93712.63
2022-12-22T11:20:02.698Z,93710.72
2022-12-22T11:21:01.983Z,93702.59
2022-12-22T11:22:10.699Z,93699.94
2022-12-22T11:23:16.399Z,93706.84
2022-12-22T11:24:34.679Z,93703.25
2022-12-22T11:25:52.499Z,93697.66
2022-12-22T11:26:51.685Z,93700.25
2022-12-22T11:28:03.656Z,93697.00
2022-12-22T11:29:15.472Z,93696.66
2022-12-22T11:30:18.439Z,93696.72
2022-12-22T11:31:33.880Z,93697.91
2022-12-22T11:32:33.396Z,93690.66
2022-12-22T11:33:56.502Z,93675.16
2022-12-22T11:35:17.908Z,93696.34
2022-12-22T11:36:26.379Z,93702.84
2022-12-22T11:37:45.828Z,93692.81
2022-12-22T11:38:50.319Z,93698.63
2022-12-22T11:39:59.197Z,93688.38
2022-12-22T11:41:05.441Z,93681.81
2022-12-22T11:42:10.897Z,93704.59
2022-12-22T11:43:17.875Z,93696.59
2022-12-22T11:45:02.417Z,93688.31
2022-12-22T11:46:13.947Z,93689.25
2022-12-22T11:47:54.560Z,93693.72
2022-12-22T11:48:58.129Z,93695.53
2022-12-22T11:51:00.382Z,93691.41
2022-12-22T11:51:54.240Z,93690.63
2022-12-22T11:53:06.015Z,93680.47
2022-12-22T11:54:23.629Z,93684.34
2022-12-22T11:55:50.879Z,93684.19
2022-12-22T11:57:39.788Z,93686.34
2022-12-22T11:58:36.370Z,93690.41
2022-12-22T12:00:03.655Z,93686.00
2022-12-22T12:01:45.288Z,93684.72
2022-12-22T12:03:14.406Z,93681.88
2022-12-22T12:04:23.280Z,93684.84
2022-12-22T12:05:57.892Z,93676.44
2022-12-22T12:07:22.025Z,93681.06
2022-12-22T12:08:34.645Z,93679.06
2022-12-22T12:09:31.205Z,93673.28
2022-12-22T12:10:32.735Z,93684.78
2022-12-22T12:11:47.644Z,93671.41
2022-12-22T12:13:00.142Z,93667.81
2022-12-22T12:14:26.192Z,93666.25
2022-12-22T12:15:29.875Z,93664.63
2022-12-22T12:16:55.791Z,93661.16
2022-12-22T12:18:27.599Z,93657.56
2022-12-22T12:19:52.932Z,93659.25
2022-12-22T12:21:18.261Z,93665.56
2022-12-22T12:23:07.697Z,93662.03
2022-12-22T12:24:16.015Z,93672.16
2022-12-22T12:25:27.837Z,93668.47
2022-12-22T12:26:49.862Z,93661.38
2022-12-22T12:28:04.955Z,93645.41
2022-12-22T12:29:13.131Z,93665.94
2022-12-22T12:31:39.420Z,93666.75
2022-12-22T12:32:56.273Z,93667.09
2022-12-22T12:33:56.750Z,93609.34
2022-12-22T12:35:02.696Z,93634.38
2022-12-22T12:36:08.150Z,93672.41
2022-12-22T12:37:13.287Z,93663.59
2022-12-22T12:38:56.743Z,93660.78
2022-12-22T12:39:38.245Z,93662.31
2022-12-22T12:40:52.968Z,93661.69
2022-12-22T12:41:49.568Z,93661.28
2022-12-22T12:42:47.701Z,93633.84
2022-12-22T12:43:45.613Z,93649.19
2022-12-22T12:44:42.595Z,93656.88
2022-12-22T12:45:44.107Z,93659.47
2022-12-22T12:46:40.877Z,93666.22